createdAt,value
2022-10-28T00:01:10.531Z,101328.91
2022-10-28T00:03:43.268Z,101321.97
2022-10-28T00:06:13.070Z,101326.31
2022-10-28T00:08:40.638Z,101308.97
2022-10-28T00:11:11.601Z,101328.00
2022-10-28T00:13:39.863Z,101333.19
2022-10-28T00:16:12.155Z,101330.59
2022-10-28T00:18:40.202Z,101321.06
2022-10-28T00:21:14.411Z,101314.19
2022-10-28T00:23:41.890Z,101312.44
2022-10-28T00:26:13.233Z,101304.69
2022-10-28T00:28:45.419Z,101260.56
2022-10-28T00:31:14.088Z,101289.97
2022-10-28T00:33:41.932Z,101299.53
2022-10-28T00:36:11.787Z,101298.69
2022-10-28T00:38:40.010Z,101297.81
2022-10-28T00:41:08.247Z,101284.84
2022-10-28T00:43:37.815Z,101288.31
2022-10-28T00:46:25.979Z,101205.28
2022-10-28T00:49:19.061Z,101261.53
2022-10-28T00:51:49.346Z,101281.41
2022-10-28T00:54:17.841Z,101278.81
2022-10-28T00:56:49.151Z,101226.03
2022-10-28T00:59:37.400Z,101248.50
2022-10-28T01:02:05.742Z,101279.66
2022-10-28T01:04:33.351Z,101290.03
2022-10-28T01:07:02.041Z,101287.44
2022-10-28T01:09:29.162Z,101293.47
2022-10-28T01:12:17.743Z,101277.91
2022-10-28T01:14:50.992Z,101273.59
2022-10-28T01:17:37.505Z,101265.81
2022-10-28T01:20:44.200Z,101257.16
2022-10-28T01:23:36.751Z,101262.31
2022-10-28T01:26:54.982Z,101259.69
2022-10-28T01:29:49.839Z,101257.09
2022-10-28T01:32:32.365Z,101260.56
2022-10-28T01:35:38.751Z,101241.56
2022-10-28T01:38:36.401Z,101238.13
2022-10-28T01:41:17.792Z,101238.13
2022-10-28T01:43:55.291Z,101212.19
2022-10-28T01:46:28.603Z,101222.59
2022-10-28T01:48:58.156Z,101241.59
2022-10-28T01:51:54.711Z,101236.44
2022-10-28T01:54:25.523Z,101217.41
2022-10-28T01:56:57.067Z,101196.63
2022-10-28T01:59:28.566Z,101236.44
2022-10-28T02:01:56.658Z,101233.84
2022-10-28T02:04:23.861Z,101208.75
2022-10-28T02:06:54.799Z,101218.25
2022-10-28T02:09:37.939Z,101232.94
2022-10-28T02:12:28.982Z,101222.53
2022-10-28T02:15:02.208Z,101224.22
2022-10-28T02:17:48.542Z,101166.28
2022-10-28T02:20:26.591Z,101217.34
2022-10-28T02:23:23.458Z,101222.50
2022-10-28T02:26:23.160Z,101224.25
2022-10-28T02:29:05.574Z,101223.34
2022-10-28T02:31:37.701Z,101175.81
2022-10-28T02:34:10.064Z,101217.31
2022-10-28T02:36:42.001Z,101217.31
2022-10-28T02:39:09.110Z,101224.22
2022-10-28T02:41:51.647Z,101215.56
2022-10-28T02:44:25.504Z,101193.06
2022-10-28T02:46:55.675Z,101206.91
2022-10-28T02:49:24.681Z,101189.66
2022-10-28T02:51:57.761Z,101155.03
2022-10-28T02:54:55.355Z,101181.00
2022-10-28T02:57:28.440Z,101184.47
2022-10-28T02:59:59.262Z,101181.00
2022-10-28T03:02:27.309Z,101181.84
2022-10-28T03:04:54.381Z,101179.28
2022-10-28T03:07:21.745Z,101185.31
2022-10-28T03:09:49.007Z,101155.06
2022-10-28T03:12:16.181Z,101155.94
2022-10-28T03:14:43.341Z,101176.69
2022-10-28T03:17:10.411Z,101174.13
2022-10-28T03:19:37.684Z,101179.28
2022-10-28T03:22:04.956Z,101174.97
2022-10-28T03:24:32.223Z,101167.19
2022-10-28T03:26:59.533Z,101177.56
2022-10-28T03:29:26.747Z,101168.03
2022-10-28T03:31:53.846Z,101173.22
2022-10-28T03:34:21.031Z,101153.34
2022-10-28T03:36:48.260Z,101155.09
2022-10-28T03:39:15.796Z,101155.13
2022-10-28T03:41:42.900Z,101161.16
2022-10-28T03:44:10.210Z,101077.31
2022-10-28T03:46:37.470Z,101161.16
2022-10-28T03:49:04.867Z,101155.13
2022-10-28T03:51:32.103Z,101161.19
2022-10-28T03:53:59.440Z,101157.69
2022-10-28T03:56:26.771Z,101130.94
2022-10-28T03:58:54.134Z,101147.34
2022-10-28T04:01:21.564Z,101149.09
2022-10-28T04:03:48.852Z,101130.94
2022-10-28T04:06:17.027Z,101146.50
2022-10-28T04:08:44.167Z,101136.13
2022-10-28T04:11:11.292Z,101145.66
2022-10-28T04:13:38.530Z,101116.28
2022-10-28T04:16:06.353Z,101113.66
2022-10-28T04:18:33.651Z,101127.53
2022-10-28T04:21:00.869Z,101127.53
2022-10-28T04:23:28.150Z,101122.38
2022-10-28T04:25:55.571Z,101082.59
2022-10-28T04:28:26.325Z,101117.19
2022-10-28T04:30:53.442Z,101077.41
2022-10-28T04:33:20.565Z,101112.00
2022-10-28T04:35:47.865Z,101120.66
2022-10-28T04:38:15.836Z,101113.72
2022-10-28T04:40:43.076Z,101067.06
2022-10-28T04:43:12.048Z,101114.59
2022-10-28T04:45:39.749Z,101115.47
2022-10-28T04:48:07.115Z,101094.72
2022-10-28T04:50:34.521Z,101118.91
2022-10-28T04:53:10.741Z,101116.31
2022-10-28T04:55:38.121Z,101080.91
2022-10-28T04:58:05.374Z,101096.47
2022-10-28T05:00:32.573Z,101097.34
2022-10-28T05:03:03.407Z,101099.94
2022-10-28T05:05:30.830Z,101089.59
2022-10-28T05:07:58.165Z,101041.19
2022-10-28T05:10:25.405Z,101098.19
2022-10-28T05:12:52.497Z,101091.31
2022-10-28T05:15:19.748Z,101041.19
2022-10-28T05:17:47.813Z,101080.09
2022-10-28T05:20:17.725Z,101086.13
2022-10-28T05:22:50.455Z,101003.22
2022-10-28T05:25:18.461Z,101075.78
2022-10-28T05:27:45.870Z,101064.56
2022-10-28T05:30:13.700Z,101077.50
2022-10-28T05:32:41.123Z,101063.72
2022-10-28T05:35:09.292Z,101032.59
2022-10-28T05:37:36.637Z,101072.34
2022-10-28T05:40:04.635Z,101032.59
2022-10-28T05:42:32.087Z,101062.81
2022-10-28T05:44:59.159Z,101065.44
2022-10-28T05:47:26.436Z,101079.25
2022-10-28T05:49:53.795Z,101001.50
2022-10-28T05:52:21.063Z,101074.91
2022-10-28T05:54:48.186Z,101048.13
2022-10-28T05:57:15.391Z,101055.88
2022-10-28T05:59:42.689Z,101086.13
2022-10-28T06:02:16.001Z,101083.56
2022-10-28T06:04:43.380Z,101055.06
2022-10-28T06:07:10.662Z,101070.59
2022-10-28T06:09:37.770Z,101073.19
2022-10-28T06:12:05.718Z,101074.06
2022-10-28T06:14:33.499Z,101080.97
2022-10-28T06:17:00.728Z,101077.53
2022-10-28T06:19:27.821Z,101087.91
2022-10-28T06:21:55.027Z,101061.97
2022-10-28T06:24:22.126Z,101087.91
2022-10-28T06:26:49.211Z,101032.63
2022-10-28T06:29:16.444Z,101089.59
2022-10-28T06:31:43.667Z,101053.31
2022-10-28T06:34:11.599Z,101089.59
2022-10-28T06:36:38.826Z,101094.78
2022-10-28T06:39:06.268Z,101093.06
2022-10-28T06:41:33.955Z,101099.97
2022-10-28T06:44:02.004Z,101101.72
2022-10-28T06:46:29.326Z,101109.47
2022-10-28T06:48:58.083Z,101113.78
2022-10-28T06:51:25.257Z,101072.31
2022-10-28T06:53:53.637Z,101106.91
2022-10-28T06:56:20.747Z,101114.66
2022-10-28T06:58:55.240Z,101106.91
2022-10-28T07:01:23.047Z,101079.28
2022-10-28T07:03:50.302Z,101079.25
2022-10-28T07:06:17.943Z,101112.06
2022-10-28T07:08:45.239Z,101101.75
2022-10-28T07:11:12.757Z,101110.38
2022-10-28T07:13:42.467Z,101100.88
2022-10-28T07:16:11.553Z,101098.28
2022-10-28T07:18:38.926Z,101105.19
2022-10-28T07:21:06.666Z,101053.41
2022-10-28T07:23:34.570Z,101096.59
2022-10-28T07:26:02.004Z,101090.53
2022-10-28T07:28:29.416Z,101089.66
2022-10-28T07:31:02.026Z,101089.66
2022-10-28T07:33:29.237Z,101082.75
2022-10-28T07:35:56.404Z,101005.06
2022-10-28T07:38:23.776Z,101087.03
2022-10-28T07:40:50.855Z,101072.34
2022-10-28T07:43:18.224Z,101091.38
2022-10-28T07:45:45.658Z,101066.28
2022-10-28T07:48:13.012Z,101039.53
2022-10-28T07:50:43.363Z,101067.09
2022-10-28T07:53:10.541Z,101068.78
2022-10-28T07:55:37.914Z,101041.94
2022-10-28T07:58:05.373Z,101030.72
2022-10-28T08:00:32.477Z,101072.91
2022-10-28T08:02:59.601Z,101076.28
2022-10-28T08:05:26.761Z,101070.09
2022-10-28T08:07:54.224Z,101042.44
2022-10-28T08:10:21.572Z,101069.13
2022-10-28T08:12:49.066Z,101081.91
2022-10-28T08:15:17.038Z,101084.41
2022-10-28T08:17:44.088Z,100985.09
2022-10-28T08:20:11.435Z,101078.00
2022-10-28T08:22:38.611Z,101049.44
2022-10-28T08:25:06.314Z,101003.75
2022-10-28T08:27:33.591Z,101058.66
2022-10-28T08:30:00.851Z,101084.34
2022-10-28T08:32:28.059Z,101090.22
2022-10-28T08:34:55.259Z,101103.06
2022-10-28T08:37:22.524Z,101108.06
2022-10-28T08:39:50.077Z,101083.78
2022-10-28T08:42:58.804Z,101102.72
2022-10-28T08:46:03.779Z,101099.09
2022-10-28T08:48:35.651Z,101093.78
2022-10-28T08:51:29.755Z,101095.44
2022-10-28T08:54:07.028Z,101084.25
2022-10-28T08:56:37.882Z,101072.97
2022-10-28T08:59:07.736Z,101066.03
2022-10-28T09:01:56.939Z,101081.50
2022-10-28T09:04:44.771Z,101074.53
2022-10-28T09:07:20.692Z,101043.47
2022-10-28T09:09:50.148Z,101055.47
2022-10-28T09:12:17.128Z,101059.75
2022-10-28T09:15:27.203Z,101060.69
2022-10-28T09:18:13.149Z,101056.44
2022-10-28T09:20:48.476Z,101062.44
2022-10-28T09:26:42.581Z,101058.06
2022-10-28T09:29:35.746Z,101052.88
2022-10-28T09:32:39.625Z,101038.25
2022-10-28T09:35:13.326Z,101056.22
2022-10-28T09:37:49.820Z,101050.13
2022-10-28T09:40:29.925Z,101032.00
2022-10-28T09:42:57.292Z,101039.72
2022-10-28T09:45:29.179Z,101044.94
2022-10-28T09:48:02.123Z,100974.41
2022-10-28T09:50:33.649Z,101051.72
2022-10-28T09:53:14.820Z,101041.09
2022-10-28T09:55:42.195Z,101013.47
2022-10-28T09:58:11.906Z,101046.88
2022-10-28T10:00:39.787Z,101035.47
2022-10-28T10:03:07.057Z,101038.91
2022-10-28T10:05:39.380Z,101023.16
2022-10-28T10:08:11.159Z,101025.81
2022-10-28T10:10:55.048Z,101035.28
2022-10-28T10:13:29.871Z,101021.38
2022-10-28T10:16:32.173Z,101021.38
2022-10-28T10:19:02.304Z,101028.22
2022-10-28T10:21:55.811Z,101026.47
2022-10-28T10:24:34.535Z,100986.69
2022-10-28T10:27:21.413Z,101008.78
2022-10-28T10:29:52.016Z,101011.06
2022-10-28T10:32:27.698Z,101009.09
2022-10-28T10:35:13.361Z,101009.63
2022-10-28T10:37:46.025Z,100957.91
2022-10-28T10:40:26.862Z,101009.28
2022-10-28T10:43:12.809Z,100979.09
2022-10-28T10:48:25.608Z,101001.09
2022-10-28T10:50:54.511Z,100984.56
2022-10-28T10:53:25.628Z,101003.31
2022-10-28T10:56:05.175Z,101003.00
2022-10-28T10:58:36.018Z,100988.97
2022-10-28T11:01:06.520Z,100995.06
2022-10-28T11:03:37.340Z,101000.28
2022-10-28T11:06:24.403Z,101001.16
2022-10-28T11:09:06.668Z,101003.91
2022-10-28T11:14:32.734Z,100974.94
2022-10-28T11:17:02.059Z,101006.91
2022-10-28T11:22:34.493Z,101020.47
2022-10-28T11:25:10.819Z,101037.88
2022-10-28T11:27:37.987Z,101057.09
2022-10-28T11:30:11.337Z,101032.41
2022-10-28T11:33:07.957Z,101063.53
2022-10-28T11:35:49.208Z,101067.09
2022-10-28T11:44:44.706Z,101070.88
2022-10-28T11:47:17.503Z,101076.09
2022-10-28T11:50:15.734Z,101070.06
2022-10-28T11:56:01.828Z,101057.06
2022-10-28T11:58:42.044Z,101048.31
2022-10-28T12:01:22.339Z,101041.25
2022-10-28T12:04:08.190Z,101042.78
2022-10-28T12:10:33.387Z,101004.69
2022-10-28T12:16:38.787Z,101009.28
2022-10-28T12:19:47.299Z,101011.81
2022-10-28T12:22:36.206Z,101000.44
2022-10-28T12:25:13.784Z,100990.94
2022-10-28T12:27:44.193Z,100990.91
2022-10-28T12:30:14.244Z,100977.13
2022-10-28T12:32:44.067Z,100977.19
2022-10-28T12:35:30.957Z,100972.88
2022-10-28T12:38:41.147Z,100954.00
2022-10-28T12:41:21.134Z,100969.59
2022-10-28T12:43:54.820Z,100959.41
2022-10-28T12:46:45.344Z,100971.38
2022-10-28T12:49:32.990Z,100965.31
2022-10-28T12:52:08.558Z,100967.84
2022-10-28T12:54:54.520Z,100957.47
2022-10-28T12:57:23.600Z,100950.69
2022-10-28T13:00:26.116Z,100933.50
2022-10-28T13:03:04.545Z,100962.69
2022-10-28T13:05:46.820Z,100954.06
2022-10-28T13:08:24.030Z,100955.78
2022-10-28T13:10:58.399Z,100959.28
2022-10-28T13:14:07.290Z,100935.09
2022-10-28T13:16:52.948Z,100934.09
2022-10-28T13:19:36.967Z,100920.13
2022-10-28T13:22:16.283Z,100912.19
2022-10-28T13:25:31.396Z,100908.69
2022-10-28T13:30:57.766Z,100897.13
2022-10-28T13:36:41.826Z,100888.19
2022-10-28T13:39:33.591Z,100888.19
2022-10-28T13:42:12.946Z,100894.28
2022-10-28T13:44:56.607Z,100871.13
2022-10-28T13:47:27.680Z,100889.06
2022-10-28T13:53:31.008Z,100897.88
2022-10-28T13:55:59.014Z,100890.13
2022-10-28T13:58:27.080Z,100891.84
2022-10-28T14:00:55.368Z,100893.75
2022-10-28T14:03:26.334Z,100903.28
2022-10-28T14:05:57.645Z,100896.38
2022-10-28T14:08:24.885Z,100901.59
2022-10-28T14:11:22.594Z,100903.31
2022-10-28T14:14:01.344Z,100905.81
2022-10-28T14:16:39.166Z,100904.97
2022-10-28T14:19:11.963Z,100899.81
2022-10-28T14:21:51.219Z,100891.16
2022-10-28T14:24:38.000Z,100903.38
2022-10-28T14:27:08.453Z,100894.72
2022-10-28T14:30:13.831Z,100892.41
2022-10-28T14:33:11.518Z,100897.53
2022-10-28T14:35:44.513Z,100894.94
2022-10-28T14:39:08.759Z,100876.06
2022-10-28T14:45:06.163Z,100895.25
2022-10-28T14:50:50.858Z,100867.91
2022-10-28T14:53:28.787Z,100890.22
2022-10-28T14:56:03.157Z,100896.44
2022-10-28T14:58:37.018Z,100887.06
2022-10-28T15:01:10.259Z,100900.81
2022-10-28T15:03:39.255Z,100851.22
2022-10-28T15:06:24.192Z,100911.34
2022-10-28T15:08:53.261Z,100908.03
2022-10-28T15:11:21.271Z,100911.47
2022-10-28T15:13:52.477Z,100916.72
2022-10-28T15:16:24.767Z,100915.09
2022-10-28T15:21:38.927Z,100905.03
2022-10-28T15:24:08.426Z,100920.50
2022-10-28T15:26:35.675Z,100916.22
2022-10-28T15:32:24.793Z,100905.19
2022-10-28T15:37:36.907Z,100894.94
2022-10-28T15:40:20.854Z,100901.97
2022-10-28T15:42:58.941Z,100872.69
2022-10-28T15:45:31.963Z,100887.28
2022-10-28T15:48:01.118Z,100863.97
2022-10-28T15:50:32.655Z,100872.44
2022-10-28T15:53:11.834Z,100870.72
2022-10-28T15:56:06.954Z,100873.28
2022-10-28T16:04:22.172Z,100858.56
2022-10-28T16:06:58.464Z,100783.75
2022-10-28T16:09:32.682Z,100832.75
2022-10-28T16:12:04.795Z,100810.25
2022-10-28T16:14:44.182Z,100841.31
2022-10-28T16:20:17.310Z,100848.22
2022-10-28T16:22:47.107Z,100844.69
2022-10-28T16:25:17.236Z,100830.03
2022-10-28T16:27:44.409Z,100827.41
2022-10-28T16:30:12.205Z,100839.59
2022-10-28T16:32:47.274Z,100842.22
2022-10-28T16:35:20.247Z,100835.31
2022-10-28T16:37:53.794Z,100844.91
2022-10-28T16:40:50.911Z,100838.78
2022-10-28T16:43:16.853Z,100788.19
2022-10-28T16:45:44.094Z,100817.44
2022-10-28T16:51:16.569Z,100832.78
2022-10-28T16:53:47.534Z,100820.88
2022-10-28T16:56:16.257Z,100777.00
2022-10-28T16:58:44.439Z,100821.53
2022-10-28T17:03:56.952Z,100824.97
2022-10-28T17:06:24.234Z,100813.75
2022-10-28T17:09:06.677Z,100796.63
2022-10-28T17:11:34.076Z,100822.38
2022-10-28T17:14:01.181Z,100818.97
2022-10-28T17:16:28.470Z,100786.31
2022-10-28T17:18:55.532Z,100818.91
2022-10-28T17:21:22.643Z,100807.84
2022-10-28T17:23:49.845Z,100811.19
2022-10-28T17:26:17.140Z,100814.56
2022-10-28T17:28:44.240Z,100817.16
2022-10-28T17:33:56.489Z,100821.34
2022-10-28T17:36:23.920Z,100779.19
2022-10-28T17:38:51.218Z,100814.44
2022-10-28T17:41:18.641Z,100817.00
2022-10-28T17:43:45.996Z,100806.56
2022-10-28T17:46:13.330Z,100809.13
2022-10-28T17:48:40.691Z,100810.00
2022-10-28T17:51:08.058Z,100805.66
2022-10-28T17:53:35.266Z,100798.75
2022-10-28T17:56:04.720Z,100807.31
2022-10-28T17:58:32.611Z,100802.91
2022-10-28T18:01:08.088Z,100803.75
2022-10-28T18:03:38.487Z,100808.13
2022-10-28T18:08:54.119Z,100762.47
2022-10-28T18:11:21.661Z,100761.47
2022-10-28T18:13:51.676Z,100787.16
2022-10-28T18:16:24.472Z,100781.88
2022-10-28T18:21:36.946Z,100743.97
2022-10-28T18:24:04.583Z,100749.94
2022-10-28T18:26:36.182Z,100776.53
2022-10-28T18:29:05.813Z,100772.97
2022-10-28T18:31:33.892Z,100778.19
2022-10-28T18:36:46.680Z,100759.09
2022-10-28T18:41:58.095Z,100767.53
2022-10-28T18:44:32.028Z,100755.31
2022-10-28T18:49:45.748Z,100681.47
2022-10-28T18:52:12.926Z,100751.72
2022-10-28T18:54:40.152Z,100736.06
2022-10-28T18:57:07.351Z,100736.81
2022-10-28T18:59:35.238Z,100687.84
2022-10-28T19:02:04.622Z,100735.78
2022-10-28T19:04:31.920Z,100692.91
2022-10-28T19:09:43.856Z,100732.06
2022-10-28T19:12:11.027Z,100726.03
2022-10-28T19:14:38.371Z,100734.63
2022-10-28T19:17:05.517Z,100685.75
2022-10-28T19:19:35.550Z,100733.53
2022-10-28T19:22:05.726Z,100729.25
2022-10-28T19:24:32.974Z,100731.75
2022-10-28T19:27:00.198Z,100729.16
2022-10-28T19:29:27.318Z,100689.66
2022-10-28T19:31:54.575Z,100712.88
2022-10-28T19:34:21.813Z,100719.59
2022-10-28T19:36:49.111Z,100704.16
2022-10-28T19:39:16.362Z,100697.47
2022-10-28T19:41:43.961Z,100690.56
2022-10-28T19:46:55.483Z,100735.25
2022-10-28T19:49:26.886Z,100737.03
2022-10-28T19:51:55.862Z,100731.81
2022-10-28T19:54:23.186Z,100731.97
2022-10-28T19:56:50.899Z,100744.91
2022-10-28T19:59:18.265Z,100646.19
2022-10-28T20:04:29.744Z,100740.41
2022-10-28T20:06:59.141Z,100732.59
2022-10-28T20:09:28.939Z,100729.09
2022-10-28T20:11:56.631Z,100733.44
2022-10-28T20:14:23.716Z,100726.44
2022-10-28T20:16:51.020Z,100690.53
2022-10-28T20:19:18.143Z,100669.09
2022-10-28T20:24:30.368Z,100712.66
2022-10-28T20:26:57.610Z,100722.94
2022-10-28T20:29:24.672Z,100726.53
2022-10-28T20:31:52.571Z,100680.25
2022-10-28T20:34:19.945Z,100724.81
2022-10-28T20:36:46.954Z,100687.91
2022-10-28T20:39:19.656Z,100717.19
2022-10-28T20:41:48.367Z,100716.41
2022-10-28T20:44:15.873Z,100716.31
2022-10-28T20:46:45.437Z,100716.31
2022-10-28T20:49:13.434Z,100718.19
2022-10-28T20:51:41.192Z,100725.19
2022-10-28T20:54:08.503Z,100679.00
2022-10-28T20:56:38.018Z,100724.50
2022-10-28T20:59:05.817Z,100723.69
2022-10-28T21:01:39.478Z,100702.34
2022-10-28T21:04:09.873Z,100723.84
2022-10-28T21:09:23.070Z,100704.34
2022-10-28T21:11:50.117Z,100731.00
2022-10-28T21:14:17.236Z,100708.00
2022-10-28T21:19:29.558Z,100734.72
2022-10-28T21:21:56.786Z,100654.91
2022-10-28T21:24:23.978Z,100714.94
2022-10-28T21:26:52.167Z,100723.53
2022-10-28T21:29:19.401Z,100710.63
2022-10-28T21:31:50.037Z,100712.63
2022-10-28T21:34:17.521Z,100715.97
2022-10-28T21:36:44.676Z,100689.41
2022-10-28T21:39:11.732Z,100668.75
2022-10-28T21:41:38.881Z,100676.59
2022-10-28T21:44:06.463Z,100720.44
2022-10-28T21:46:33.724Z,100678.44
2022-10-28T21:49:01.731Z,100668.09
2022-10-28T21:56:57.877Z,100707.63
2022-10-28T21:59:24.935Z,100697.47
2022-10-28T22:01:52.272Z,100714.63
2022-10-28T22:04:19.662Z,100618.59
2022-10-28T22:09:15.110Z,100707.81
2022-10-28T22:11:42.435Z,100699.31
2022-10-28T22:14:09.593Z,100718.25
2022-10-28T22:16:36.909Z,100718.31
2022-10-28T22:19:07.876Z,100704.50
2022-10-28T22:21:40.774Z,100709.72
2022-10-28T22:24:08.325Z,100705.50
2022-10-28T22:26:35.485Z,100701.97
2022-10-28T22:29:02.777Z,100651.41
2022-10-28T22:31:32.460Z,100687.44
2022-10-28T22:34:00.525Z,100700.44
2022-10-28T22:36:29.828Z,100700.47
2022-10-28T22:41:42.095Z,100692.72
2022-10-28T22:44:09.382Z,100699.69
2022-10-28T22:46:36.880Z,100691.06
2022-10-28T22:49:04.736Z,100687.63
2022-10-28T22:51:32.549Z,100687.69
2022-10-28T22:54:00.013Z,100687.63
2022-10-28T22:56:27.952Z,100684.25
2022-10-28T22:58:57.301Z,100682.50
2022-10-28T23:01:26.158Z,100679.91
2022-10-28T23:06:39.291Z,100687.78
2022-10-28T23:09:06.415Z,100691.31
2022-10-28T23:11:33.462Z,100697.44
2022-10-28T23:14:01.321Z,100712.09
2022-10-28T23:16:28.712Z,100648.75
2022-10-28T23:18:56.145Z,100707.06
2022-10-28T23:21:25.381Z,100703.63
2022-10-28T23:24:00.131Z,100690.84
2022-10-28T23:26:29.249Z,100705.41
2022-10-28T23:31:44.072Z,100695.25
2022-10-28T23:36:55.745Z,100695.19
2022-10-28T23:42:07.271Z,100700.53
2022-10-28T23:44:34.353Z,100700.53
2022-10-28T23:47:01.555Z,100655.03
2022-10-28T23:49:28.821Z,100697.16
2022-10-28T23:51:56.091Z,100688.50
2022-10-28T23:57:08.543Z,100666.28
2022-10-28T23:59:35.742Z,100665.44
